sensor_id;sensor_type;location;lat;lon;timestamp;pressure;altitude;pressure_sealevel;temperature;humidity
10474;BME280;5284;50.446;7.904;2024-01-16T00:01:44;97604.97;;;-0.45;100.00
10474;BME280;5284;50.446;7.904;2024-01-16T00:06:47;97611.06;;;-0.44;100.00
10474;BME280;5284;50.446;7.904;2024-01-16T00:11:50;97609.69;;;-0.51;100.00
10474;BME280;5284;50.446;7.904;2024-01-16T00:16:55;97608.78;;;-0.50;100.00
10474;BME280;5284;50.446;7.904;2024-01-16T00:21:58;97617.28;;;-0.47;100.00
10474;BME280;5284;50.446;7.904;2024-01-16T00:27:02;97625.16;;;-0.47;100.00
10474;BME280;5284;50.446;7.904;2024-01-16T00:32:10;97627.41;;;-0.41;100.00
10474;BME280;5284;50.446;7.904;2024-01-16T00:37:19;97634.25;;;-0.38;100.00
10474;BME280;5284;50.446;7.904;2024-01-16T00:42:22;97630.03;;;-0.41;100.00
10474;BME280;5284;50.446;7.904;2024-01-16T00:47:27;97648.19;;;-0.38;100.00
10474;BME280;5284;50.446;7.904;2024-01-16T00:52:30;97641.88;;;-0.34;100.00
10474;BME280;5284;50.446;7.904;2024-01-16T00:57:33;97654.09;;;-0.34;100.00
10474;BME280;5284;50.446;7.904;2024-01-16T01:02:40;97657.41;;;-0.31;100.00
10474;BME280;5284;50.446;7.904;2024-01-16T01:07:44;97662.88;;;-0.35;100.00
10474;BME280;5284;50.446;7.904;2024-01-16T01:12:48;97660.03;;;-0.31;100.00
10474;BME280;5284;50.446;7.904;2024-01-16T01:17:52;97662.53;;;-0.29;100.00
10474;BME280;5284;50.446;7.904;2024-01-16T01:22:56;97666.94;;;-0.30;100.00
10474;BME280;5284;50.446;7.904;2024-01-16T01:28:00;97668.88;;;-0.33;100.00
10474;BME280;5284;50.446;7.904;2024-01-16T01:33:04;97669.47;;;-0.28;100.00
10474;BME280;5284;50.446;7.904;2024-01-16T01:38:08;97674.69;;;-0.28;100.00
10474;BME280;5284;50.446;7.904;2024-01-16T01:43:17;97678.25;;;-0.29;100.00
10474;BME280;5284;50.446;7.904;2024-01-16T01:48:22;97682.50;;;-0.27;100.00
10474;BME280;5284;50.446;7.904;2024-01-16T01:53:26;97687.91;;;-0.30;100.00
10474;BME280;5284;50.446;7.904;2024-01-16T01:58:30;97688.84;;;-0.31;100.00
10474;BME280;5284;50.446;7.904;2024-01-16T02:03:38;97695.94;;;-0.33;100.00
10474;BME280;5284;50.446;7.904;2024-01-16T02:08:42;97704.03;;;-0.37;100.00
10474;BME280;5284;50.446;7.904;2024-01-16T02:13:45;97699.53;;;-0.35;100.00
10474;BME280;5284;50.446;7.904;2024-01-16T02:18:51;97704.09;;;-0.39;100.00
10474;BME280;5284;50.446;7.904;2024-01-16T02:23:57;97700.72;;;-0.41;100.00
10474;BME280;5284;50.446;7.904;2024-01-16T02:29:00;97702.22;;;-0.37;100.00
10474;BME280;5284;50.446;7.904;2024-01-16T02:34:03;97698.69;;;-0.36;100.00
10474;BME280;5284;50.446;7.904;2024-01-16T02:39:08;97693.44;;;-0.36;100.00
10474;BME280;5284;50.446;7.904;2024-01-16T02:44:11;97696.84;;;-0.34;100.00
10474;BME280;5284;50.446;7.904;2024-01-16T02:49:14;97694.25;;;-0.34;100.00
10474;BME280;5284;50.446;7.904;2024-01-16T02:54:20;97692.53;;;-0.35;100.00
10474;BME280;5284;50.446;7.904;2024-01-16T02:59:23;97694.13;;;-0.32;100.00
10474;BME280;5284;50.446;7.904;2024-01-16T03:04:26;97690.69;;;-0.33;100.00
10474;BME280;5284;50.446;7.904;2024-01-16T03:09:30;97696.00;;;-0.34;100.00
10474;BME280;5284;50.446;7.904;2024-01-16T03:14:33;97705.38;;;-0.30;100.00
10474;BME280;5284;50.446;7.904;2024-01-16T03:19:37;97712.41;;;-0.31;100.00
10474;BME280;5284;50.446;7.904;2024-01-16T03:24:42;97720.25;;;-0.31;100.00
10474;BME280;5284;50.446;7.904;2024-01-16T03:29:45;97717.63;;;-0.31;100.00
10474;BME280;5284;50.446;7.904;2024-01-16T03:34:50;97714.41;;;-0.36;100.00
10474;BME280;5284;50.446;7.904;2024-01-16T03:39:54;97716.09;;;-0.35;100.00
10474;BME280;5284;50.446;7.904;2024-01-16T03:44:58;97713.75;;;-0.39;100.00
10474;BME280;5284;50.446;7.904;2024-01-16T03:50:01;97719.91;;;-0.40;100.00
10474;BME280;5284;50.446;7.904;2024-01-16T03:55:06;97718.47;;;-0.46;100.00
10474;BME280;5284;50.446;7.904;2024-01-16T04:00:11;97722.69;;;-0.43;100.00
10474;BME280;5284;50.446;7.904;2024-01-16T04:05:15;97717.69;;;-0.48;100.00
10474;BME280;5284;50.446;7.904;2024-01-16T04:10:19;97721.00;;;-0.44;100.00
10474;BME280;5284;50.446;7.904;2024-01-16T04:15:22;97722.69;;;-0.43;100.00
10474;BME280;5284;50.446;7.904;2024-01-16T04:20:25;97721.00;;;-0.44;100.00
10474;BME280;5284;50.446;7.904;2024-01-16T04:25:30;97721.84;;;-0.44;100.00
10474;BME280;5284;50.446;7.904;2024-01-16T04:30:33;97720.31;;;-0.48;100.00
10474;BME280;5284;50.446;7.904;2024-01-16T04:35:36;97727.06;;;-0.44;100.00
10474;BME280;5284;50.446;7.904;2024-01-16T04:40:40;97727.06;;;-0.44;100.00
10474;BME280;5284;50.446;7.904;2024-01-16T04:45:43;97727.00;;;-0.42;100.00
10474;BME280;5284;50.446;7.904;2024-01-16T04:50:46;97732.41;;;-0.45;100.00
10474;BME280;5284;50.446;7.904;2024-01-16T04:55:51;97730.72;;;-0.46;100.00
10474;BME280;5284;50.446;7.904;2024-01-16T05:00:55;97732.47;;;-0.47;100.00
10474;BME280;5284;50.446;7.904;2024-01-16T05:05:58;97735.25;;;-0.50;100.00
10474;BME280;5284;50.446;7.904;2024-01-16T05:11:02;97728.16;;;-0.48;100.00
10474;BME280;5284;50.446;7.904;2024-01-16T05:16:06;97729.78;;;-0.45;100.00
10474;BME280;5284;50.446;7.904;2024-01-16T05:21:09;97727.94;;;-0.43;100.00
10474;BME280;5284;50.446;7.904;2024-01-16T05:26:13;97731.56;;;-0.46;100.00
10474;BME280;5284;50.446;7.904;2024-01-16T05:31:17;97725.72;;;-0.51;100.00
10474;BME280;5284;50.446;7.904;2024-01-16T05:36:21;97724.78;;;-0.50;100.00
10474;BME280;5284;50.446;7.904;2024-01-16T05:41:26;97732.81;;;-0.53;100.00
10474;BME280;5284;50.446;7.904;2024-01-16T05:46:31;97724.44;;;-0.59;100.00
10474;BME280;5284;50.446;7.904;2024-01-16T05:51:34;97723.28;;;-0.54;100.00
10474;BME280;5284;50.446;7.904;2024-01-16T05:56:40;97728.34;;;-0.51;100.00
10474;BME280;5284;50.446;7.904;2024-01-16T06:01:43;97714.84;;;-0.59;100.00
10474;BME280;5284;50.446;7.904;2024-01-16T06:06:46;97716.00;;;-0.64;100.00
10474;BME280;5284;50.446;7.904;2024-01-16T06:11:51;97709.84;;;-0.63;100.00
10474;BME280;5284;50.446;7.904;2024-01-16T06:16:56;97706.47;;;-0.65;100.00
10474;BME280;5284;50.446;7.904;2024-01-16T06:21:59;97705.53;;;-0.64;100.00
10474;BME280;5284;50.446;7.904;2024-01-16T06:27:04;97706.69;;;-0.70;100.00
10474;BME280;5284;50.446;7.904;2024-01-16T06:32:08;97704.34;;;-0.74;100.00
10474;BME280;5284;50.446;7.904;2024-01-16T06:37:11;97707.91;;;-0.75;100.00
10474;BME280;5284;50.446;7.904;2024-01-16T06:42:15;97706.97;;;-0.74;100.00
10474;BME280;5284;50.446;7.904;2024-01-16T06:47:18;97695.03;;;-0.80;100.00
10474;BME280;5284;50.446;7.904;2024-01-16T06:52:21;97695.16;;;-0.81;100.00
10474;BME280;5284;50.446;7.904;2024-01-16T06:57:25;97691.91;;;-0.86;100.00
10474;BME280;5284;50.446;7.904;2024-01-16T07:02:29;97698.00;;;-0.86;100.00
10474;BME280;5284;50.446;7.904;2024-01-16T07:07:33;97698.06;;;-0.87;100.00
10474;BME280;5284;50.446;7.904;2024-01-16T07:12:38;97709.47;;;-0.88;100.00
10474;BME280;5284;50.446;7.904;2024-01-16T07:17:41;97723.47;;;-0.89;100.00
10474;BME280;5284;50.446;7.904;2024-01-16T07:22:44;97722.81;;;-0.93;100.00
10474;BME280;5284;50.446;7.904;2024-01-16T07:27:49;97725.25;;;-0.90;100.00
10474;BME280;5284;50.446;7.904;2024-01-16T07:32:52;97733.94;;;-0.89;100.00
10474;BME280;5284;50.446;7.904;2024-01-16T07:37:57;97738.06;;;-0.85;100.00
10474;BME280;5284;50.446;7.904;2024-01-16T07:43:05;97734.38;;;-0.81;100.00
10474;BME280;5284;50.446;7.904;2024-01-16T07:48:08;97727.97;;;-0.76;100.00
10474;BME280;5284;50.446;7.904;2024-01-16T07:53:11;97732.97;;;-0.71;100.00
10474;BME280;5284;50.446;7.904;2024-01-16T07:58:15;97741.41;;;-0.66;100.00
10474;BME280;5284;50.446;7.904;2024-01-16T08:03:18;97746.88;;;-0.71;100.00
10474;BME280;5284;50.446;7.904;2024-01-16T08:08:21;97744.13;;;-0.68;100.00
10474;BME280;5284;50.446;7.904;2024-01-16T08:13:26;97750.34;;;-0.70;100.00
10474;BME280;5284;50.446;7.904;2024-01-16T08:18:30;97753.41;;;-0.62;100.00
10474;BME280;5284;50.446;7.904;2024-01-16T08:23:34;97759.56;;;-0.63;100.00
10474;BME280;5284;50.446;7.904;2024-01-16T08:28:38;97763.47;;;-0.55;100.00
10474;BME280;5284;50.446;7.904;2024-01-16T08:33:42;97760.09;;;-0.57;100.00
10474;BME280;5284;50.446;7.904;2024-01-16T08:38:48;97766.25;;;-0.58;100.00
10474;BME280;5284;50.446;7.904;2024-01-16T08:43:53;97757.22;;;-0.52;100.00
10474;BME280;5284;50.446;7.904;2024-01-16T08:48:56;97755.03;;;-0.44;100.00
10474;BME280;5284;50.446;7.904;2024-01-16T08:54:00;97756.53;;;-0.56;100.00
10474;BME280;5284;50.446;7.904;2024-01-16T08:59:04;97756.28;;;-0.36;100.00
10474;BME280;5284;50.446;7.904;2024-01-16T09:04:07;97764.25;;;-0.22;100.00
10474;BME280;5284;50.446;7.904;2024-01-16T09:09:10;97758.31;;;0.05;100.00
10474;BME280;5284;50.446;7.904;2024-01-16T09:14:17;97773.41;;;-0.13;100.00
10474;BME280;5284;50.446;7.904;2024-01-16T09:19:22;97775.09;;;-0.12;100.00
10474;BME280;5284;50.446;7.904;2024-01-16T09:24:28;97775.66;;;0.08;100.00
10474;BME280;5284;50.446;7.904;2024-01-16T09:29:32;97780.88;;;0.39;100.00
10474;BME280;5284;50.446;7.904;2024-01-16T09:34:35;97786.41;;;0.48;100.00
10474;BME280;5284;50.446;7.904;2024-01-16T09:39:38;97791.00;;;0.45;100.00
10474;BME280;5284;50.446;7.904;2024-01-16T09:44:42;97787.31;;;0.63;100.00
10474;BME280;5284;50.446;7.904;2024-01-16T09:49:46;97788.72;;;0.68;100.00
10474;BME280;5284;50.446;7.904;2024-01-16T09:54:49;97780.31;;;0.77;100.00
10474;BME280;5284;50.446;7.904;2024-01-16T09:59:56;97783.41;;;1.41;100.00
10474;BME280;5284;50.446;7.904;2024-01-16T10:05:01;97779.34;;;1.91;100.00
10474;BME280;5284;50.446;7.904;2024-01-16T10:10:06;97771.06;;;2.11;100.00
10474;BME280;5284;50.446;7.904;2024-01-16T10:15:13;97777.34;;;2.09;100.00
10474;BME280;5284;50.446;7.904;2024-01-16T10:20:31;97786.31;;;1.64;100.00
10474;BME280;5284;50.446;7.904;2024-01-16T10:25:35;97788.22;;;1.48;100.00
10474;BME280;5284;50.446;7.904;2024-01-16T10:30:40;97772.28;;;2.06;100.00
10474;BME280;5284;50.446;7.904;2024-01-16T10:35:43;97769.09;;;2.27;100.00
10474;BME280;5284;50.446;7.904;2024-01-16T10:40:46;97753.50;;;2.77;100.00
10474;BME280;5284;50.446;7.904;2024-01-16T10:46:06;97747.72;;;2.97;100.00
10474;BME280;5284;50.446;7.904;2024-01-16T10:51:10;97745.19;;;2.83;100.00
10474;BME280;5284;50.446;7.904;2024-01-16T10:56:15;97740.56;;;2.99;100.00
10474;BME280;5284;50.446;7.904;2024-01-16T11:01:21;97739.19;;;2.94;100.00
10474;BME280;5284;50.446;7.904;2024-01-16T11:06:26;97724.97;;;3.46;100.00
10474;BME280;5284;50.446;7.904;2024-01-16T11:11:33;97715.84;;;4.11;95.21
10474;BME280;5284;50.446;7.904;2024-01-16T11:16:40;97708.53;;;4.14;97.45
10474;BME280;5284;50.446;7.904;2024-01-16T11:21:44;97704.41;;;3.99;95.23
10474;BME280;5284;50.446;7.904;2024-01-16T11:26:48;97701.88;;;3.85;88.68
10474;BME280;5284;50.446;7.904;2024-01-16T11:31:53;97697.47;;;3.86;79.86
10474;BME280;5284;50.446;7.904;2024-01-16T11:37:25;97693.50;;;4.04;85.54
10474;BME280;5284;50.446;7.904;2024-01-16T11:42:29;97693.72;;;3.65;82.81
10474;BME280;5284;50.446;7.904;2024-01-16T11:47:33;97673.63;;;4.68;79.42
10474;BME280;5284;50.446;7.904;2024-01-16T11:52:41;97665.19;;;5.20;79.67
10474;BME280;5284;50.446;7.904;2024-01-16T11:57:57;97657.50;;;5.83;80.57
10474;BME280;5284;50.446;7.904;2024-01-16T12:03:06;97662.91;;;5.92;72.96
10474;BME280;5284;50.446;7.904;2024-01-16T12:08:12;97660.50;;;5.56;73.74
10474;BME280;5284;50.446;7.904;2024-01-16T12:13:23;97669.16;;;5.91;75.55
10474;BME280;5284;50.446;7.904;2024-01-16T12:18:28;97657.16;;;5.54;80.74
10474;BME280;5284;50.446;7.904;2024-01-16T12:23:44;97671.81;;;5.36;83.51
10474;BME280;5284;50.446;7.904;2024-01-16T12:29:01;97656.50;;;4.85;77.61
10474;BME280;5284;50.446;7.904;2024-01-16T12:34:06;97640.03;;;4.70;75.55
10474;BME280;5284;50.446;7.904;2024-01-16T12:39:11;97627.66;;;4.60;74.81
10474;BME280;5284;50.446;7.904;2024-01-16T12:44:16;97621.94;;;4.08;77.15
10474;BME280;5284;50.446;7.904;2024-01-16T12:49:21;97627.88;;;3.52;79.03
10474;BME280;5284;50.446;7.904;2024-01-16T12:54:24;97610.78;;;3.22;77.46
10474;BME280;5284;50.446;7.904;2024-01-16T12:59:28;97610.63;;;3.36;82.00
10474;BME280;5284;50.446;7.904;2024-01-16T13:04:34;97610.09;;;2.83;83.13
10474;BME280;5284;50.446;7.904;2024-01-16T13:09:37;97602.22;;;2.45;87.38
10474;BME280;5284;50.446;7.904;2024-01-16T13:14:40;97587.75;;;2.13;90.84
10474;BME280;5284;50.446;7.904;2024-01-16T13:19:45;97596.13;;;2.06;92.90
10474;BME280;5284;50.446;7.904;2024-01-16T13:24:48;97584.19;;;2.14;93.67
10474;BME280;5284;50.446;7.904;2024-01-16T13:30:03;97572.75;;;2.40;90.72
10474;BME280;5284;50.446;7.904;2024-01-16T13:35:09;97573.41;;;1.92;95.42
10474;BME280;5284;50.446;7.904;2024-01-16T13:40:13;97581.72;;;1.60;95.82
10474;BME280;5284;50.446;7.904;2024-01-16T13:45:23;97570.19;;;1.75;99.05
10474;BME280;5284;50.446;7.904;2024-01-16T13:50:27;97569.00;;;1.66;99.88
10474;BME280;5284;50.446;7.904;2024-01-16T13:55:32;97577.38;;;1.85;97.06
10474;BME280;5284;50.446;7.904;2024-01-16T14:00:34;97579.41;;;2.07;99.55
10474;BME280;5284;50.446;7.904;2024-01-16T14:05:39;97578.59;;;2.06;95.57
10474;BME280;5284;50.446;7.904;2024-01-16T14:10:44;97575.31;;;2.03;98.26
10474;BME280;5284;50.446;7.904;2024-01-16T14:15:50;97568.38;;;2.02;96.59
10474;BME280;5284;50.446;7.904;2024-01-16T14:20:55;97579.34;;;1.82;91.46
10474;BME280;5284;50.446;7.904;2024-01-16T14:25:59;97579.16;;;1.85;93.42
10474;BME280;5284;50.446;7.904;2024-01-16T14:31:03;97577.84;;;1.65;88.01
10474;BME280;5284;50.446;7.904;2024-01-16T14:36:09;97566.88;;;1.85;88.03
10474;BME280;5284;50.446;7.904;2024-01-16T14:41:12;97578.41;;;1.70;87.79
10474;BME280;5284;50.446;7.904;2024-01-16T14:46:19;97580.19;;;1.44;88.23
10474;BME280;5284;50.446;7.904;2024-01-16T14:51:26;97578.03;;;1.36;89.58
10474;BME280;5284;50.446;7.904;2024-01-16T14:56:29;97582.84;;;1.30;92.71
10474;BME280;5284;50.446;7.904;2024-01-16T15:01:32;97586.25;;;1.18;94.39
10474;BME280;5284;50.446;7.904;2024-01-16T15:06:37;97579.72;;;1.11;93.86
10474;BME280;5284;50.446;7.904;2024-01-16T15:11:42;97582.38;;;0.83;95.73
10474;BME280;5284;50.446;7.904;2024-01-16T15:16:50;97578.25;;;0.51;97.17
10474;BME280;5284;50.446;7.904;2024-01-16T15:21:55;97553.72;;;0.38;98.43
10474;BME280;5284;50.446;7.904;2024-01-16T15:26:59;97561.25;;;0.14;100.00
10474;BME280;5284;50.446;7.904;2024-01-16T15:32:03;97548.06;;;0.02;100.00
10474;BME280;5284;50.446;7.904;2024-01-16T15:37:07;97562.81;;;-0.11;100.00
10474;BME280;5284;50.446;7.904;2024-01-16T15:42:10;97555.84;;;-0.26;100.00
10474;BME280;5284;50.446;7.904;2024-01-16T15:47:13;97555.59;;;-0.37;100.00
10474;BME280;5284;50.446;7.904;2024-01-16T15:52:18;97557.84;;;-0.45;100.00
10474;BME280;5284;50.446;7.904;2024-01-16T15:57:21;97556.53;;;-0.67;100.00
10474;BME280;5284;50.446;7.904;2024-01-16T16:02:24;97553.34;;;-0.88;100.00
10474;BME280;5284;50.446;7.904;2024-01-16T16:07:30;97550.03;;;-1.38;100.00
10474;BME280;5284;50.446;7.904;2024-01-16T16:12:33;97551.09;;;-1.57;100.00
10474;BME280;5284;50.446;7.904;2024-01-16T16:17:36;97553.97;;;-1.94;100.00
10474;BME280;5284;50.446;7.904;2024-01-16T16:22:40;97546.38;;;-2.15;100.00
10474;BME280;5284;50.446;7.904;2024-01-16T16:27:46;97550.38;;;-2.42;100.00
10474;BME280;5284;50.446;7.904;2024-01-16T16:32:49;97569.41;;;-2.57;100.00
10474;BME280;5284;50.446;7.904;2024-01-16T16:37:54;97572.91;;;-2.75;100.00
10474;BME280;5284;50.446;7.904;2024-01-16T16:42:57;97576.00;;;-3.03;100.00
10474;BME280;5284;50.446;7.904;2024-01-16T16:48:01;97579.25;;;-3.16;100.00
10474;BME280;5284;50.446;7.904;2024-01-16T16:53:05;97592.72;;;-3.25;100.00
10474;BME280;5284;50.446;7.904;2024-01-16T16:58:09;97582.34;;;-3.26;100.00
10474;BME280;5284;50.446;7.904;2024-01-16T17:03:14;97581.38;;;-3.61;100.00
10474;BME280;5284;50.446;7.904;2024-01-16T17:08:19;97588.03;;;-3.74;100.00
10474;BME280;5284;50.446;7.904;2024-01-16T17:13:22;97579.56;;;-3.79;100.00
10474;BME280;5284;50.446;7.904;2024-01-16T17:18:28;97586.69;;;-3.82;100.00
10474;BME280;5284;50.446;7.904;2024-01-16T17:23:33;97584.91;;;-4.20;100.00
10474;BME280;5284;50.446;7.904;2024-01-16T17:28:37;97587.34;;;-4.37;100.00
10474;BME280;5284;50.446;7.904;2024-01-16T17:33:40;97582.09;;;-4.36;100.00
10474;BME280;5284;50.446;7.904;2024-01-16T17:38:47;97568.53;;;-4.44;100.00
10474;BME280;5284;50.446;7.904;2024-01-16T17:43:57;97553.34;;;-4.53;100.00
10474;BME280;5284;50.446;7.904;2024-01-16T17:49:01;97555.44;;;-4.41;100.00
10474;BME280;5284;50.446;7.904;2024-01-16T17:54:06;97562.75;;;-4.70;100.00
10474;BME280;5284;50.446;7.904;2024-01-16T17:59:09;97553.13;;;-5.09;100.00
10474;BME280;5284;50.446;7.904;2024-01-16T18:04:14;97537.59;;;-5.11;100.00
10474;BME280;5284;50.446;7.904;2024-01-16T18:09:18;97533.81;;;-5.04;100.00
10474;BME280;5284;50.446;7.904;2024-01-16T18:14:23;97525.47;;;-5.10;100.00
10474;BME280;5284;50.446;7.904;2024-01-16T18:19:29;97517.53;;;-5.50;100.00
10474;BME280;5284;50.446;7.904;2024-01-16T18:24:36;97507.47;;;-5.36;100.00
10474;BME280;5284;50.446;7.904;2024-01-16T18:29:40;97514.50;;;-5.61;100.00
10474;BME280;5284;50.446;7.904;2024-01-16T18:34:45;97498.94;;;-5.83;100.00
10474;BME280;5284;50.446;7.904;2024-01-16T18:39:50;97492.84;;;-5.82;100.00
10474;BME280;5284;50.446;7.904;2024-01-16T18:44:55;97490.50;;;-5.88;100.00
10474;BME280;5284;50.446;7.904;2024-01-16T18:49:58;97486.00;;;-5.63;100.00
10474;BME280;5284;50.446;7.904;2024-01-16T18:55:03;97485.84;;;-6.02;100.00
10474;BME280;5284;50.446;7.904;2024-01-16T19:00:12;97490.78;;;-5.95;100.00
10474;BME280;5284;50.446;7.904;2024-01-16T19:05:16;97476.78;;;-5.91;100.00
10474;BME280;5284;50.446;7.904;2024-01-16T19:10:21;97467.78;;;-6.27;100.00
10474;BME280;5284;50.446;7.904;2024-01-16T19:15:25;97470.22;;;-6.22;100.00
10474;BME280;5284;50.446;7.904;2024-01-16T19:20:29;97465.84;;;-6.45;100.00
10474;BME280;5284;50.446;7.904;2024-01-16T19:25:34;97467.81;;;-6.51;100.00
10474;BME280;5284;50.446;7.904;2024-01-16T19:30:38;97472.81;;;-6.70;100.00
10474;BME280;5284;50.446;7.904;2024-01-16T19:35:41;97460.97;;;-6.77;100.00
10474;BME280;5284;50.446;7.904;2024-01-16T19:40:45;97464.47;;;-6.78;100.00
10474;BME280;5284;50.446;7.904;2024-01-16T19:45:49;97457.06;;;-6.88;100.00
10474;BME280;5284;50.446;7.904;2024-01-16T19:50:52;97441.59;;;-7.16;100.00
10474;BME280;5284;50.446;7.904;2024-01-16T19:55:57;97442.47;;;-7.17;100.00
10474;BME280;5284;50.446;7.904;2024-01-16T20:01:01;97439.31;;;-7.25;100.00
10474;BME280;5284;50.446;7.904;2024-01-16T20:06:10;97428.03;;;-7.48;100.00
10474;BME280;5284;50.446;7.904;2024-01-16T20:11:15;97427.88;;;-7.69;100.00
10474;BME280;5284;50.446;7.904;2024-01-16T20:16:20;97415.44;;;-7.84;100.00
10474;BME280;5284;50.446;7.904;2024-01-16T20:21:25;97416.81;;;-8.00;100.00
10474;BME280;5284;50.446;7.904;2024-01-16T20:26:29;97404.31;;;-8.14;100.00
10474;BME280;5284;50.446;7.904;2024-01-16T20:31:36;97400.81;;;-8.13;100.00
10474;BME280;5284;50.446;7.904;2024-01-16T20:36:40;97407.84;;;-8.16;100.00
10474;BME280;5284;50.446;7.904;2024-01-16T20:41:45;97409.53;;;-8.15;100.00
10474;BME280;5284;50.446;7.904;2024-01-16T20:46:48;97409.84;;;-8.53;100.00
10474;BME280;5284;50.446;7.904;2024-01-16T20:51:52;97408.50;;;-8.66;100.00
10474;BME280;5284;50.446;7.904;2024-01-16T20:56:57;97408.69;;;-8.43;100.00
10474;BME280;5284;50.446;7.904;2024-01-16T21:02:02;97401.59;;;-8.37;100.00
10474;BME280;5284;50.446;7.904;2024-01-16T21:07:06;97391.94;;;-8.59;100.00
10474;BME280;5284;50.446;7.904;2024-01-16T21:12:11;97385.16;;;-8.62;100.00
10474;BME280;5284;50.446;7.904;2024-01-16T21:17:15;97381.69;;;-8.62;100.00
10474;BME280;5284;50.446;7.904;2024-01-16T21:22:18;97381.03;;;-8.69;100.00
10474;BME280;5284;50.446;7.904;2024-01-16T21:27:38;97389.84;;;-8.76;100.00
10474;BME280;5284;50.446;7.904;2024-01-16T21:32:42;97378.00;;;-8.83;100.00
10474;BME280;5284;50.446;7.904;2024-01-16T21:37:45;97366.91;;;-8.86;100.00
10474;BME280;5284;50.446;7.904;2024-01-16T21:42:50;97356.75;;;-8.92;100.00
10474;BME280;5284;50.446;7.904;2024-01-16T21:47:53;97358.69;;;-8.98;100.00
10474;BME280;5284;50.446;7.904;2024-01-16T21:52:56;97347.50;;;-8.99;100.00
10474;BME280;5284;50.446;7.904;2024-01-16T21:58:01;97343.31;;;-9.03;100.00
10474;BME280;5284;50.446;7.904;2024-01-16T22:03:04;97333.63;;;-8.95;100.00
10474;BME280;5284;50.446;7.904;2024-01-16T22:08:08;97325.69;;;-9.18;100.00
10474;BME280;5284;50.446;7.904;2024-01-16T22:13:12;97328.50;;;-9.25;100.00
10474;BME280;5284;50.446;7.904;2024-01-16T22:18:15;97316.59;;;-9.31;100.00
10474;BME280;5284;50.446;7.904;2024-01-16T22:23:19;97293.25;;;-9.57;100.00
10474;BME280;5284;50.446;7.904;2024-01-16T22:28:23;97292.31;;;-9.54;100.00
10474;BME280;5284;50.446;7.904;2024-01-16T22:33:26;97287.09;;;-9.53;100.00
10474;BME280;5284;50.446;7.904;2024-01-16T22:38:29;97278.53;;;-9.53;100.00
10474;BME280;5284;50.446;7.904;2024-01-16T22:43:34;97266.47;;;-9.53;100.00
10474;BME280;5284;50.446;7.904;2024-01-16T22:48:38;97271.72;;;-9.56;100.00
10474;BME280;5284;50.446;7.904;2024-01-16T22:53:42;97268.34;;;-9.58;100.00
10474;BME280;5284;50.446;7.904;2024-01-16T22:58:47;97261.88;;;-9.72;100.00
10474;BME280;5284;50.446;7.904;2024-01-16T23:03:50;97247.22;;;-10.01;100.00
10474;BME280;5284;50.446;7.904;2024-01-16T23:08:58;97241.72;;;-9.89;100.00
10474;BME280;5284;50.446;7.904;2024-01-16T23:14:03;97239.06;;;-9.86;100.00
10474;BME280;5284;50.446;7.904;2024-01-16T23:19:06;97231.78;;;-10.01;100.00
10474;BME280;5284;50.446;7.904;2024-01-16T23:24:12;97219.97;;;-10.09;100.00
10474;BME280;5284;50.446;7.904;2024-01-16T23:29:17;97206.78;;;-9.99;100.00
10474;BME280;5284;50.446;7.904;2024-01-16T23:34:20;97193.22;;;-10.04;100.00
10474;BME280;5284;50.446;7.904;2024-01-16T23:39:23;97191.94;;;-9.91;100.00
10474;BME280;5284;50.446;7.904;2024-01-16T23:44:29;97181.72;;;-9.94;100.00
10474;BME280;5284;50.446;7.904;2024-01-16T23:49:32;97181.78;;;-9.95;100.00
10474;BME280;5284;50.446;7.904;2024-01-16T23:54:36;97165.28;;;-9.90;100.00
10474;BME280;5284;50.446;7.904;2024-01-16T23:59:41;97170.13;;;-9.78;100.00
